Time;durP1;ratioP1;P1;durP2;ratioP2;P2;SDS_P1;SDS_P2;PMS_P1;PMS_P2;Temp;Humidity;BMP_temperature;BMP_pressure;BME280_temperature;BME280_humidity;BME280_pressure;Samples;Min_cycle;Max_cycle;Signal;HPM_P1;HPM_P2
2023/06/21 00:01:28;;;;;;;10.73;9.63;;;22.80;99.90;;;;;;5094425;28;20807;-71
2023/06/21 00:10:38;;;;;;;12.60;9.93;;;22.60;99.90;;;;;;5075159;28;20395;-71
2023/06/21 00:13:03;;;;;;;12.80;10.10;;;22.60;99.90;;;;;;5074971;28;20404;-71
2023/06/21 00:15:29;;;;;;;10.90;9.37;;;22.50;99.90;;;;;;5074916;28;20193;-71
2023/06/21 00:17:54;;;;;;;10.17;9.20;;;22.50;99.90;;;;;;5074561;28;20190;-71
2023/06/21 00:20:20;;;;;;;11.33;9.30;;;22.50;99.90;;;;;;5074381;28;20638;-71
2023/06/21 00:22:47;;;;;;;12.33;10.20;;;22.50;99.90;;;;;;5077393;28;20530;-71
2023/06/21 00:25:14;;;;;;;10.80;9.70;;;22.40;99.90;;;;;;5075246;28;20419;-71
2023/06/21 00:27:42;;;;;;;11.10;10.00;;;22.30;99.90;;;;;;5074925;28;20503;-72
2023/06/21 00:30:08;;;;;;;11.20;9.33;;;22.30;99.90;;;;;;5074584;28;20412;-71
2023/06/21 00:32:33;;;;;;;11.20;10.20;;;22.30;99.90;;;;;;5074396;28;20396;-71
2023/06/21 00:34:59;;;;;;;10.93;9.87;;;22.20;99.90;;;;;;5085960;28;20920;-71
2023/06/21 00:37:26;;;;;;;10.00;9.20;;;22.20;99.90;;;;;;5095167;28;20197;-71
2023/06/21 00:39:52;;;;;;;11.17;10.17;;;22.20;99.90;;;;;;5095151;28;20230;-72
2023/06/21 00:42:17;;;;;;;10.93;9.80;;;22.20;99.90;;;;;;5093379;28;20462;-71
2023/06/21 00:44:43;;;;;;;11.73;10.70;;;22.20;99.90;;;;;;5092925;28;20176;-71
2023/06/21 00:47:09;;;;;;;10.40;9.17;;;22.10;99.90;;;;;;5094499;28;20197;-71
2023/06/21 00:49:35;;;;;;;11.23;10.13;;;22.10;99.90;;;;;;5094272;28;20170;-72
2023/06/21 00:52:02;;;;;;;11.77;9.60;;;22.10;99.90;;;;;;5094582;28;20185;-71
2023/06/21 00:54:34;;;;;;;11.33;10.27;;;22.10;99.90;;;;;;5094462;28;20465;-71
2023/06/21 00:57:01;;;;;;;11.63;10.47;;;22.30;99.90;;;;;;5094288;28;20421;-71
2023/06/21 00:59:27;;;;;;;12.20;11.10;;;22.30;99.90;;;;;;5094400;28;20431;-72
2023/06/21 01:01:56;;;;;;;10.87;9.97;;;22.40;99.90;;;;;;5094577;28;20433;-72
2023/06/21 01:04:24;;;;;;;11.13;9.87;;;22.50;99.90;;;;;;5094478;28;20498;-71
2023/06/21 01:07:14;;;;;;;11.20;10.10;;;22.60;99.90;;;;;;5093933;28;20502;-71
2023/06/21 01:09:55;;;;;;;11.67;10.47;;;22.60;99.90;;;;;;5094438;28;20902;-71
2023/06/21 01:12:49;;;;;;;12.43;11.23;;;22.60;99.90;;;;;;5093907;28;20434;-72
2023/06/21 01:15:20;;;;;;;12.30;11.10;;;22.50;99.90;;;;;;5093961;28;20482;-71
2023/06/21 01:17:51;;;;;;;10.23;9.43;;;22.40;99.90;;;;;;5094059;28;20509;-71
2023/06/21 01:20:24;;;;;;;12.13;10.77;;;22.30;99.90;;;;;;5093820;28;20398;-71
2023/06/21 01:22:58;;;;;;;15.33;11.50;;;22.30;99.90;;;;;;5094163;28;20459;-71
2023/06/21 01:25:45;;;;;;;11.30;10.20;;;22.20;99.90;;;;;;5094169;28;20399;-71
2023/06/21 01:28:39;;;;;;;12.80;11.60;;;22.30;99.90;;;;;;5094169;28;20433;-71
2023/06/21 01:31:05;;;;;;;11.13;10.10;;;22.20;99.90;;;;;;5093924;28;20446;-71
2023/06/21 01:33:33;;;;;;;13.13;11.33;;;22.20;99.90;;;;;;5093941;28;20787;-71
2023/06/21 01:36:03;;;;;;;12.80;11.00;;;22.10;99.90;;;;;;5093464;28;20408;-71
2023/06/21 01:38:29;;;;;;;11.30;10.20;;;22.10;99.90;;;;;;5093898;28;20439;-71
2023/06/21 01:40:55;;;;;;;13.33;11.97;;;22.00;99.90;;;;;;5092459;28;20515;-71
2023/06/21 01:43:22;;;;;;;13.53;10.90;;;21.90;99.90;;;;;;5092239;28;20205;-71
2023/06/21 01:45:49;;;;;;;12.50;11.23;;;21.90;99.90;;;;;;5093412;28;20415;-71
2023/06/21 01:48:15;;;;;;;12.50;11.20;;;21.90;99.90;;;;;;5092981;28;20411;-71
2023/06/21 01:50:42;;;;;;;11.77;10.63;;;21.90;99.90;;;;;;5093105;28;20435;-71
2023/06/21 01:53:10;;;;;;;10.40;9.50;;;21.90;99.90;;;;;;5093347;28;20399;-70
2023/06/21 01:55:36;;;;;;;11.90;10.70;;;21.90;99.90;;;;;;5093396;28;20474;-71
2023/06/21 01:58:04;;;;;;;13.70;10.97;;;21.80;99.90;;;;;;5092302;28;20488;-71
2023/06/21 02:00:29;;;;;;;12.30;10.17;;;21.80;99.90;;;;;;5093425;28;20419;-71
2023/06/21 02:02:59;;;;;;;11.60;10.60;;;21.70;99.90;;;;;;5093343;28;20464;-70
2023/06/21 02:05:25;;;;;;;10.27;9.40;;;21.60;99.90;;;;;;5092931;28;20242;-71
2023/06/21 02:07:52;;;;;;;11.63;10.63;;;21.60;99.90;;;;;;5093099;28;20910;-71
2023/06/21 02:10:19;;;;;;;11.30;9.53;;;21.60;99.90;;;;;;5092920;28;20940;-71
2023/06/21 02:12:50;;;;;;;10.83;9.60;;;21.70;99.90;;;;;;5092744;28;20816;-71
2023/06/21 02:15:16;;;;;;;10.57;9.57;;;21.90;99.90;;;;;;5092980;28;20865;-71
2023/06/21 02:17:48;;;;;;;10.63;9.73;;;21.90;99.90;;;;;;5093000;28;20458;-71
2023/06/21 02:20:14;;;;;;;11.27;10.27;;;22.00;99.90;;;;;;5092525;28;20414;-72
2023/06/21 02:22:40;;;;;;;11.30;10.17;;;21.90;99.90;;;;;;5092652;28;20407;-71
2023/06/21 02:25:07;;;;;;;11.07;10.03;;;21.80;99.90;;;;;;5084536;28;20890;-71
2023/06/21 02:27:32;;;;;;;10.43;9.43;;;21.90;99.90;;;;;;5072219;28;20436;-70
2023/06/21 02:29:58;;;;;;;10.40;9.50;;;22.00;99.90;;;;;;5072408;28;20416;-71
2023/06/21 02:32:23;;;;;;;10.73;9.53;;;22.10;99.90;;;;;;5072349;28;20228;-71
2023/06/21 02:34:49;;;;;;;11.50;9.17;;;22.00;99.90;;;;;;5078529;28;20178;-71
2023/06/21 02:37:14;;;;;;;10.57;9.57;;;22.10;99.90;;;;;;5076578;28;20209;-71
2023/06/21 02:39:40;;;;;;;10.53;9.53;;;22.20;99.90;;;;;;5079258;28;20165;-71
2023/06/21 02:42:06;;;;;;;9.77;8.97;;;22.20;99.90;;;;;;5092330;28;20261;-71
2023/06/21 02:44:31;;;;;;;11.43;10.33;;;22.20;99.90;;;;;;5092410;28;20180;-71
2023/06/21 02:46:58;;;;;;;11.70;10.60;;;22.20;99.90;;;;;;5092635;28;20165;-71
2023/06/21 02:49:24;;;;;;;11.40;10.37;;;22.20;99.90;;;;;;5092514;28;20512;-71
2023/06/21 02:51:50;;;;;;;11.87;10.67;;;22.20;99.90;;;;;;5092184;28;20431;-70
2023/06/21 02:54:16;;;;;;;11.57;10.40;;;22.00;99.90;;;;;;5092353;28;20189;-70
2023/06/21 02:56:44;;;;;;;12.07;10.90;;;21.80;99.90;;;;;;5092424;28;20170;-71
2023/06/21 02:59:10;;;;;;;10.93;10.03;;;21.80;99.90;;;;;;5091935;28;20232;-71
2023/06/21 03:01:36;;;;;;;10.57;9.57;;;21.80;99.90;;;;;;5092403;28;20798;-71
2023/06/21 03:04:02;;;;;;;13.67;9.20;;;21.90;99.90;;;;;;5092505;28;20491;-71
2023/06/21 03:06:29;;;;;;;12.23;11.10;;;22.00;99.90;;;;;;5092127;28;20494;-71
2023/06/21 03:08:58;;;;;;;11.07;10.07;;;22.00;99.90;;;;;;5092238;28;20586;-71
2023/06/21 03:11:24;;;;;;;10.30;9.37;;;22.10;99.90;;;;;;5092370;28;20875;-71
2023/06/21 03:13:49;;;;;;;10.17;9.10;;;22.00;99.90;;;;;;5092619;28;20494;-70
2023/06/21 03:16:15;;;;;;;11.03;10.07;;;22.10;99.90;;;;;;5092305;28;20215;-71
2023/06/21 03:18:41;;;;;;;10.70;9.60;;;22.00;99.90;;;;;;5092269;28;20250;-70
2023/06/21 03:21:06;;;;;;;9.83;8.73;;;22.00;99.90;;;;;;5091913;28;20861;-71
2023/06/21 03:23:33;;;;;;;10.90;9.93;;;22.00;99.90;;;;;;5092223;28;20173;-70
2023/06/21 03:25:59;;;;;;;10.50;9.67;;;22.10;99.90;;;;;;5091989;28;20434;-71
2023/06/21 03:28:24;;;;;;;10.37;9.47;;;22.20;99.90;;;;;;5092549;28;20177;-71
2023/06/21 03:30:50;;;;;;;10.13;9.20;;;22.30;99.90;;;;;;5091298;28;20197;-70
2023/06/21 03:33:16;;;;;;;11.20;10.10;;;22.30;99.90;;;;;;5092152;28;20161;-70
2023/06/21 03:35:42;;;;;;;10.33;9.30;;;22.30;99.90;;;;;;5091952;28;20166;-70
2023/06/21 03:38:08;;;;;;;9.83;8.93;;;22.30;99.90;;;;;;5090574;28;20194;-70
2023/06/21 03:40:34;;;;;;;11.37;9.33;;;22.30;99.90;;;;;;5090547;28;20450;-70
2023/06/21 03:42:59;;;;;;;11.33;10.33;;;22.40;99.90;;;;;;5091884;28;20191;-70
2023/06/21 03:45:25;;;;;;;11.50;10.47;;;22.50;99.90;;;;;;5092092;28;20912;-70
2023/06/21 03:47:51;;;;;;;12.07;10.83;;;22.50;99.90;;;;;;5092249;28;20172;-70
2023/06/21 03:50:17;;;;;;;11.53;10.27;;;22.30;99.90;;;;;;5092098;28;20161;-70
2023/06/21 03:52:43;;;;;;;13.37;11.90;;;22.30;99.90;;;;;;5091963;28;20699;-70
2023/06/21 03:55:09;;;;;;;11.77;10.73;;;22.30;99.90;;;;;;5091894;28;20162;-70
2023/06/21 03:57:35;;;;;;;12.30;9.70;;;22.40;99.90;;;;;;5091651;28;20445;-70
2023/06/21 04:00:00;;;;;;;13.13;10.07;;;22.10;99.90;;;;;;5092210;28;20172;-70
2023/06/21 04:02:26;;;;;;;10.83;9.30;;;21.80;99.90;;;;;;5090309;28;20261;-70
2023/06/21 04:04:51;;;;;;;10.83;9.70;;;21.70;99.90;;;;;;5091776;28;20161;-71
2023/06/21 04:07:19;;;;;;;11.80;10.87;;;21.70;99.90;;;;;;5091849;28;20177;-71
2023/06/21 04:09:45;;;;;;;10.37;9.43;;;21.70;99.90;;;;;;5092289;28;20197;-71
2023/06/21 04:12:11;;;;;;;14.93;11.63;;;21.80;99.90;;;;;;5095260;28;20446;-71
2023/06/21 04:14:37;;;;;;;11.53;10.33;;;22.00;99.90;;;;;;5095368;28;20407;-70
2023/06/21 04:17:03;;;;;;;11.20;8.90;;;22.10;99.90;;;;;;5094891;28;20905;-70
2023/06/21 04:19:29;;;;;;;10.47;9.47;;;22.10;99.90;;;;;;5095204;28;20303;-70
2023/06/21 04:21:55;;;;;;;10.60;9.50;;;22.20;99.90;;;;;;5095092;28;20447;-70
2023/06/21 04:24:20;;;;;;;10.77;9.77;;;22.20;99.90;;;;;;5094734;28;20169;-70
2023/06/21 04:26:47;;;;;;;9.37;8.43;;;22.20;99.90;;;;;;5077109;28;20188;-70
2023/06/21 04:29:16;;;;;;;11.53;10.10;;;22.10;99.90;;;;;;5074711;28;20162;-70
2023/06/21 04:31:42;;;;;;;11.03;10.13;;;21.90;99.90;;;;;;5090950;28;21023;-70
2023/06/21 04:34:08;;;;;;;15.00;9.00;;;21.90;99.90;;;;;;5094842;28;20450;-70
2023/06/21 04:36:34;;;;;;;12.03;9.73;;;22.00;99.90;;;;;;5095050;28;20399;-70
2023/06/21 04:39:00;;;;;;;11.07;9.87;;;22.00;99.90;;;;;;5093907;28;20447;-70
2023/06/21 04:41:26;;;;;;;10.43;9.53;;;22.00;99.90;;;;;;5094621;28;20527;-71
2023/06/21 04:43:51;;;;;;;11.20;10.00;;;21.90;99.90;;;;;;5095311;28;20707;-70
2023/06/21 04:46:18;;;;;;;8.87;8.17;;;21.90;99.90;;;;;;5094600;28;20158;-70
2023/06/21 04:48:46;;;;;;;9.83;8.87;;;21.90;99.90;;;;;;5094286;28;20226;-70
2023/06/21 04:51:15;;;;;;;10.80;9.70;;;22.00;99.90;;;;;;5094515;28;20470;-69
2023/06/21 04:53:45;;;;;;;10.97;10.07;;;22.00;99.90;;;;;;5094552;28;20920;-70
2023/06/21 04:56:12;;;;;;;10.40;9.30;;;21.90;99.90;;;;;;5094810;28;20880;-70
2023/06/21 04:58:39;;;;;;;11.17;10.20;;;22.00;99.90;;;;;;5094295;28;20518;-70
2023/06/21 05:01:06;;;;;;;9.10;8.30;;;22.20;99.90;;;;;;5094124;28;20520;-70
2023/06/21 05:03:32;;;;;;;10.67;9.57;;;22.30;99.90;;;;;;5080287;28;20456;-71
2023/06/21 05:05:59;;;;;;;11.53;8.37;;;22.30;99.90;;;;;;5074434;28;20401;-70
2023/06/21 05:08:24;;;;;;;12.67;9.70;;;22.30;99.90;;;;;;5074083;28;20486;-71
2023/06/21 05:10:50;;;;;;;10.93;10.00;;;22.40;99.90;;;;;;5073936;28;20517;-70
2023/06/21 05:13:16;;;;;;;10.37;8.40;;;22.70;99.90;;;;;;5073869;28;20166;-71
2023/06/21 05:15:41;;;;;;;10.37;9.37;;;22.90;99.90;;;;;;5074021;28;20517;-70
2023/06/21 05:18:07;;;;;;;9.17;8.23;;;23.00;99.90;;;;;;5073479;28;20185;-71
2023/06/21 05:20:33;;;;;;;8.53;7.83;;;23.00;99.90;;;;;;5072199;28;20236;-70
2023/06/21 05:22:58;;;;;;;10.33;9.33;;;23.00;99.90;;;;;;5073814;28;20162;-70
2023/06/21 05:25:24;;;;;;;9.77;8.87;;;23.00;99.90;;;;;;5073341;28;20170;-71
2023/06/21 05:27:49;;;;;;;8.93;8.13;;;23.00;99.90;;;;;;5073890;28;20177;-70
2023/06/21 05:30:15;;;;;;;9.00;8.13;;;23.00;99.90;;;;;;5073959;28;20166;-70
2023/06/21 05:32:41;;;;;;;11.40;9.37;;;23.10;99.90;;;;;;5090703;28;20196;-71
2023/06/21 05:35:07;;;;;;;9.67;8.70;;;23.10;99.90;;;;;;5093689;28;20162;-70
2023/06/21 05:37:32;;;;;;;9.07;8.17;;;23.10;99.90;;;;;;5094055;28;20559;-70
2023/06/21 05:40:00;;;;;;;8.43;7.73;;;23.30;99.90;;;;;;5093823;28;20911;-70
2023/06/21 05:42:27;;;;;;;10.37;9.30;;;23.30;99.90;;;;;;5092539;28;20564;-70
2023/06/21 05:44:52;;;;;;;8.10;7.40;;;23.40;99.90;;;;;;5093467;28;20422;-70
2023/06/21 05:47:18;;;;;;;11.47;10.23;;;23.50;99.90;;;;;;5093546;28;20412;-70
2023/06/21 05:49:43;;;;;;;9.67;7.63;;;23.50;99.90;;;;;;5093537;28;20192;-70
2023/06/21 05:52:09;;;;;;;9.07;8.33;;;23.50;99.90;;;;;;5093271;28;20204;-70
2023/06/21 05:54:37;;;;;;;9.87;8.03;;;23.70;99.90;;;;;;5093633;28;20170;-70
2023/06/21 05:57:04;;;;;;;11.97;10.57;;;23.50;99.90;;;;;;5093016;28;20252;-70
2023/06/21 05:59:30;;;;;;;10.40;9.50;;;23.70;99.90;;;;;;5092433;28;20451;-70
2023/06/21 06:01:55;;;;;;;9.87;8.87;;;23.70;99.90;;;;;;5093325;28;20430;-70
2023/06/21 06:04:21;;;;;;;10.17;9.30;;;23.60;99.90;;;;;;5093191;28;20170;-70
2023/06/21 06:06:46;;;;;;;9.73;8.83;;;23.50;99.90;;;;;;5093174;28;20238;-70
2023/06/21 06:09:12;;;;;;;8.57;7.60;;;23.30;99.90;;;;;;5092981;28;20256;-70
2023/06/21 06:11:38;;;;;;;10.57;9.27;;;23.40;99.90;;;;;;5092443;28;20601;-70
2023/06/21 06:14:03;;;;;;;10.93;9.83;;;23.60;99.90;;;;;;5092710;28;20176;-70
2023/06/21 06:16:29;;;;;;;9.90;8.97;;;23.70;99.90;;;;;;5093099;28;20238;-70
2023/06/21 06:18:55;;;;;;;10.10;9.10;;;23.70;99.90;;;;;;5092916;28;20265;-70
2023/06/21 06:21:21;;;;;;;11.80;10.23;;;23.50;99.90;;;;;;5093047;28;20553;-70
2023/06/21 06:23:51;;;;;;;14.63;10.07;;;23.40;99.90;;;;;;5092340;28;20169;-69
2023/06/21 06:26:35;;;;;;;9.97;8.97;;;23.40;99.90;;;;;;5092637;28;20435;-69
2023/06/21 06:29:00;;;;;;;10.67;9.47;;;23.70;99.90;;;;;;5092491;28;20931;-71
2023/06/21 06:31:29;;;;;;;11.00;10.00;;;24.00;99.90;;;;;;5090838;28;20436;-70
2023/06/21 06:33:54;;;;;;;10.23;9.33;;;24.20;99.90;;;;;;5072874;28;20252;-70
2023/06/21 06:36:20;;;;;;;11.37;9.10;;;24.30;99.90;;;;;;5071454;28;20427;-70
2023/06/21 06:38:50;;;;;;;11.60;10.50;;;24.40;99.90;;;;;;5089749;28;20671;-70
2023/06/21 06:41:17;;;;;;;10.03;9.00;;;24.30;99.90;;;;;;5091664;28;20209;-69
2023/06/21 06:43:43;;;;;;;12.17;9.73;;;24.50;99.90;;;;;;5090706;28;20929;-70
2023/06/21 06:46:09;;;;;;;10.20;9.20;;;24.20;99.90;;;;;;5087708;28;20404;-70
2023/06/21 06:48:34;;;;;;;11.13;10.00;;;24.20;99.90;;;;;;5072556;28;20458;-70
2023/06/21 06:51:00;;;;;;;18.10;9.83;;;24.40;99.90;;;;;;5072316;28;20607;-70
2023/06/21 06:53:26;;;;;;;10.40;9.20;;;24.50;99.90;;;;;;5073015;28;20657;-70
2023/06/21 06:55:52;;;;;;;10.53;9.37;;;24.60;99.90;;;;;;5071613;28;20166;-69
2023/06/21 06:58:21;;;;;;;10.77;9.67;;;24.70;99.90;;;;;;5072437;28;20197;-71
2023/06/21 07:00:48;;;;;;;10.80;9.77;;;24.60;99.90;;;;;;5072259;28;20511;-71
2023/06/21 07:03:14;;;;;;;11.03;10.03;;;24.70;99.90;;;;;;5092108;28;20421;-70
2023/06/21 07:05:44;;;;;;;11.03;9.07;;;25.00;99.90;;;;;;5092522;28;20975;-71
2023/06/21 07:08:11;;;;;;;10.17;9.17;;;25.40;99.90;;;;;;5092363;28;20470;-70
2023/06/21 07:10:36;;;;;;;10.67;8.80;;;25.30;99.90;;;;;;5092479;28;20423;-73
2023/06/21 07:13:02;;;;;;;10.80;9.30;;;25.60;99.90;;;;;;5092963;28;20789;-73
2023/06/21 07:15:28;;;;;;;11.93;8.97;;;25.40;99.90;;;;;;5096866;28;20636;-71
2023/06/21 07:17:54;;;;;;;8.77;7.87;;;25.50;99.90;;;;;;5096058;28;20189;-71
2023/06/21 07:20:20;;;;;;;7.87;7.20;;;25.60;99.90;;;;;;5094979;28;20435;-71
2023/06/21 07:22:46;;;;;;;10.10;9.20;;;25.80;99.90;;;;;;5094922;28;20410;-71
2023/06/21 07:25:11;;;;;;;9.33;8.43;;;25.60;99.90;;;;;;5094607;28;20165;-72
2023/06/21 07:27:37;;;;;;;10.90;9.80;;;25.90;99.90;;;;;;5098295;28;20205;-73
2023/06/21 07:30:05;;;;;;;8.70;7.87;;;26.00;99.90;;;;;;5097084;28;20166;-72
2023/06/21 07:32:30;;;;;;;9.33;8.20;;;26.10;99.90;;;;;;5094085;28;20236;-71
2023/06/21 07:34:58;;;;;;;14.40;9.10;;;26.40;99.90;;;;;;5093797;28;20412;-74
2023/06/21 07:37:24;;;;;;;11.80;9.13;;;26.20;99.90;;;;;;5092410;28;20189;-71
2023/06/21 07:39:49;;;;;;;14.73;10.30;;;26.50;99.90;;;;;;5092730;28;20427;-72
2023/06/21 07:42:16;;;;;;;9.90;9.00;;;26.50;99.90;;;;;;5091256;28;20519;-72
2023/06/21 07:44:41;;;;;;;10.80;9.43;;;26.50;99.90;;;;;;5092825;28;20521;-71
2023/06/21 07:47:07;;;;;;;8.83;7.93;;;26.50;99.90;;;;;;5095667;28;20412;-72
2023/06/21 07:49:33;;;;;;;9.27;8.37;;;26.50;99.90;;;;;;5096241;28;20169;-71
2023/06/21 07:51:58;;;;;;;9.80;8.90;;;26.70;99.90;;;;;;5095645;28;20200;-71
2023/06/21 07:54:24;;;;;;;10.73;8.23;;;26.50;99.90;;;;;;5095713;28;20165;-69
2023/06/21 07:56:49;;;;;;;9.70;8.40;;;26.60;99.90;;;;;;5095290;28;20213;-69
2023/06/21 07:59:15;;;;;;;8.50;7.70;;;26.50;99.90;;;;;;5094110;28;20222;-71
2023/06/21 08:01:40;;;;;;;9.73;8.70;;;26.70;99.90;;;;;;5095096;28;20241;-72
2023/06/21 08:04:06;;;;;;;9.87;8.90;;;26.90;99.90;;;;;;5095937;28;20253;-74
2023/06/21 08:06:32;;;;;;;9.30;8.40;;;27.10;99.90;;;;;;5095569;28;20605;-75
2023/06/21 08:08:57;;;;;;;8.73;7.90;;;27.00;99.90;;;;;;5095782;28;20169;-74
2023/06/21 08:11:23;;;;;;;8.70;7.90;;;27.00;99.90;;;;;;5095514;28;20264;-72
2023/06/21 08:13:48;;;;;;;10.57;8.40;;;27.10;99.90;;;;;;5093727;28;20189;-72
2023/06/21 08:16:14;;;;;;;9.80;7.57;;;27.10;99.90;;;;;;5095570;28;20590;-72
2023/06/21 08:18:39;;;;;;;10.37;5.27;;;27.10;99.90;;;;;;5095167;28;20565;-75
2023/06/21 08:21:05;;;;;;;9.13;6.57;;;26.60;99.90;;;;;;5095476;28;20654;-74
2023/06/21 08:23:31;;;;;;;8.40;6.70;;;26.40;99.90;;;;;;5095916;28;20264;-74
2023/06/21 08:25:57;;;;;;;6.40;5.57;;;26.20;99.90;;;;;;5095495;28;20897;-74
2023/06/21 08:28:22;;;;;;;8.90;7.00;;;26.30;99.90;;;;;;5095165;28;20611;-73
2023/06/21 08:30:48;;;;;;;5.90;5.40;;;26.20;99.90;;;;;;5095310;28;20280;-70
2023/06/21 08:33:14;;;;;;;9.20;6.50;;;25.80;99.90;;;;;;5094999;28;20195;-72
2023/06/21 08:35:39;;;;;;;6.90;5.13;;;25.60;99.90;;;;;;5095255;28;20295;-71
2023/06/21 08:38:05;;;;;;;9.03;6.03;;;25.60;99.90;;;;;;5095034;28;20204;-71
2023/06/21 08:40:32;;;;;;;7.07;6.37;;;25.50;99.90;;;;;;5094043;28;20212;-72
2023/06/21 08:42:59;;;;;;;7.63;6.83;;;25.50;99.90;;;;;;5094434;28;20180;-71
2023/06/21 08:45:24;;;;;;;6.90;6.13;;;25.70;99.90;;;;;;5095631;28;20419;-75
2023/06/21 08:47:53;;;;;;;7.27;6.07;;;25.70;99.90;;;;;;5095700;28;20468;-74
2023/06/21 08:50:21;;;;;;;6.83;5.93;;;25.50;99.90;;;;;;5095421;28;20239;-72
2023/06/21 08:52:48;;;;;;;6.57;5.87;;;25.50;99.90;;;;;;5079911;28;20423;-73
2023/06/21 08:55:15;;;;;;;7.60;6.20;;;25.30;99.90;;;;;;5075352;28;20485;-75
2023/06/21 08:58:09;;;;;;;7.40;6.03;;;25.40;99.90;;;;;;5074775;28;20447;-73
2023/06/21 09:00:50;;;;;;;7.03;5.80;;;25.40;99.90;;;;;;5075975;28;20602;-73
2023/06/21 09:03:26;;;;;;;8.97;6.93;;;25.30;99.90;;;;;;5075610;28;20499;-71
2023/06/21 09:06:03;;;;;;;7.87;7.07;;;25.20;99.90;;;;;;5074927;28;20879;-70
2023/06/21 09:08:30;;;;;;;6.90;6.20;;;25.10;99.90;;;;;;5075401;28;20522;-70
2023/06/21 09:10:57;;;;;;;9.60;7.60;;;25.20;99.90;;;;;;5076033;28;20497;-71
2023/06/21 09:13:24;;;;;;;8.10;6.93;;;25.20;99.90;;;;;;5088471;28;20411;-70
2023/06/21 09:15:51;;;;;;;7.90;6.43;;;25.20;99.90;;;;;;5094957;28;20897;-71
2023/06/21 09:18:18;;;;;;;11.53;8.37;;;25.10;99.90;;;;;;5093821;28;20444;-70
2023/06/21 09:20:49;;;;;;;8.37;6.90;;;24.90;99.90;;;;;;5095319;28;20420;-70
2023/06/21 09:23:15;;;;;;;8.63;6.90;;;24.70;99.90;;;;;;5096052;28;20407;-70
2023/06/21 09:25:42;;;;;;;10.33;8.10;;;24.60;99.90;;;;;;5095450;28;20411;-70
2023/06/21 09:28:07;;;;;;;8.33;7.60;;;24.50;99.90;;;;;;5095288;28;20169;-69
2023/06/21 09:30:33;;;;;;;12.50;8.57;;;24.40;99.90;;;;;;5097366;28;20448;-71
2023/06/21 09:32:59;;;;;;;8.87;7.97;;;24.10;99.90;;;;;;5095863;28;20173;-70
2023/06/21 09:35:24;;;;;;;12.47;8.27;;;23.80;99.90;;;;;;5094158;28;20702;-70
2023/06/21 09:37:50;;;;;;;9.73;8.73;;;23.60;99.90;;;;;;5093979;28;20200;-70
2023/06/21 09:40:16;;;;;;;10.43;9.33;;;23.60;99.90;;;;;;5093812;28;20248;-71
2023/06/21 09:42:44;;;;;;;10.70;9.20;;;23.40;99.90;;;;;;5092921;28;20219;-72
2023/06/21 09:45:10;;;;;;;13.80;10.70;;;23.30;99.90;;;;;;5094400;28;20483;-70
2023/06/21 09:47:36;;;;;;;10.60;9.10;;;23.20;99.90;;;;;;5094344;28;20403;-71
2023/06/21 09:50:08;;;;;;;15.47;9.57;;;22.90;99.90;;;;;;5094620;28;20502;-69
2023/06/21 09:52:34;;;;;;;12.90;9.30;;;22.80;99.90;;;;;;5093996;28;20154;-71
2023/06/21 09:55:00;;;;;;;11.97;10.43;;;22.80;99.90;;;;;;5093719;28;20936;-70
2023/06/21 09:57:30;;;;;;;11.60;9.87;;;22.80;99.90;;;;;;5093556;28;20443;-72
2023/06/21 09:59:55;;;;;;;11.07;9.10;;;23.00;99.90;;;;;;5094059;28;20166;-72
2023/06/21 10:02:21;;;;;;;13.53;10.67;;;23.00;99.90;;;;;;5092300;28;20439;-71
2023/06/21 10:04:47;;;;;;;12.03;10.80;;;22.90;99.90;;;;;;5093781;28;20166;-70
2023/06/21 10:07:14;;;;;;;13.03;11.60;;;22.60;99.90;;;;;;5092861;28;20165;-69
2023/06/21 10:09:41;;;;;;;12.80;11.50;;;22.60;99.90;;;;;;5093094;28;20166;-69
2023/06/21 10:12:10;;;;;;;10.97;9.47;;;22.80;99.90;;;;;;5093413;28;20937;-71
2023/06/21 10:14:36;;;;;;;12.97;11.70;;;22.90;99.90;;;;;;5093784;28;20392;-71
2023/06/21 10:17:03;;;;;;;14.77;11.33;;;22.80;99.90;;;;;;5092963;28;20742;-70
2023/06/21 10:19:31;;;;;;;11.77;10.57;;;22.70;99.90;;;;;;5093078;28;20201;-70
2023/06/21 10:22:33;;;;;;;11.53;10.43;;;22.80;99.90;;;;;;5093451;28;20419;-69
2023/06/21 10:25:00;;;;;;;12.53;10.83;;;22.90;99.90;;;;;;5071751;28;20411;-70
2023/06/21 10:27:26;;;;;;;10.97;9.93;;;22.90;99.90;;;;;;5093421;28;20752;-71
2023/06/21 10:29:56;;;;;;;12.43;11.33;;;23.10;99.90;;;;;;5093327;28;20433;-71
2023/06/21 10:32:23;;;;;;;13.37;10.87;;;23.30;99.90;;;;;;5093091;28;20496;-73
2023/06/21 10:35:13;;;;;;;12.30;10.53;;;23.40;99.90;;;;;;5091611;28;20423;-72
2023/06/21 10:38:01;;;;;;;12.23;10.80;;;23.50;99.90;;;;;;5093552;28;20436;-73
2023/06/21 10:40:28;;;;;;;13.93;10.00;;;23.70;99.90;;;;;;5093070;28;20480;-72
2023/06/21 10:42:55;;;;;;;13.83;11.73;;;23.90;99.90;;;;;;5093174;28;20388;-72
2023/06/21 10:45:21;;;;;;;13.90;12.13;;;24.10;99.90;;;;;;5093894;28;20835;-69
2023/06/21 10:47:47;;;;;;;12.87;10.97;;;24.20;99.90;;;;;;5093179;28;20431;-72
2023/06/21 10:50:13;;;;;;;12.70;11.33;;;24.40;99.90;;;;;;5093458;28;20628;-72
2023/06/21 10:52:40;;;;;;;14.63;13.13;;;24.60;99.90;;;;;;5092877;28;20413;-72
2023/06/21 10:55:06;;;;;;;12.90;11.40;;;24.90;99.90;;;;;;5076537;28;20790;-72
2023/06/21 10:57:34;;;;;;;14.87;11.37;;;25.10;99.90;;;;;;5088249;28;20447;-72
2023/06/21 11:00:03;;;;;;;13.87;12.00;;;25.00;99.90;;;;;;5092811;28;20404;-72
2023/06/21 11:02:29;;;;;;;13.53;12.13;;;25.30;99.90;;;;;;5093068;28;20767;-72
2023/06/21 11:05:18;;;;;;;11.63;10.63;;;25.50;99.90;;;;;;5092837;28;20429;-72
2023/06/21 11:07:50;;;;;;;10.97;9.80;;;25.60;99.90;;;;;;5093374;28;20493;-73
2023/06/21 11:10:16;;;;;;;12.43;11.13;;;26.00;99.90;;;;;;5092995;28;20415;-71
2023/06/21 11:12:42;;;;;;;11.43;10.27;;;26.00;99.90;;;;;;5092290;28;20402;-70
2023/06/21 11:15:08;;;;;;;10.13;9.13;;;25.80;99.90;;;;;;5092939;28;20399;-70
2023/06/21 11:17:35;;;;;;;10.00;9.00;;;25.70;99.90;;;;;;5092719;28;20193;-70
2023/06/21 11:20:20;;;;;;;10.23;9.30;;;26.00;99.90;;;;;;5095509;28;20767;-70
2023/06/21 11:23:00;;;;;;;10.17;9.17;;;26.30;99.90;;;;;;5096615;28;20428;-71
2023/06/21 11:25:26;;;;;;;9.40;8.60;;;26.60;99.90;;;;;;5095323;28;20419;-70
2023/06/21 11:28:18;;;;;;;10.43;8.60;;;26.90;99.90;;;;;;5096436;28;20411;-70
2023/06/21 11:31:17;;;;;;;10.20;9.17;;;27.30;99.90;;;;;;5089911;28;20438;-71
2023/06/21 11:33:51;;;;;;;9.83;8.83;;;27.40;99.90;;;;;;5063107;28;20924;-71
2023/06/21 11:36:21;;;;;;;8.80;8.00;;;27.40;99.90;;;;;;5096511;28;20946;-70
2023/06/21 11:39:06;;;;;;;11.13;10.13;;;27.70;99.90;;;;;;5096264;28;20471;-70
2023/06/21 11:41:55;;;;;;;11.27;9.30;;;28.60;99.90;;;;;;5096722;28;20465;-69
2023/06/21 11:44:23;;;;;;;9.60;8.23;;;28.10;99.90;;;;;;5095982;28;20497;-70
2023/06/21 11:46:49;;;;;;;9.40;8.50;;;28.30;99.90;;;;;;5096278;28;20407;-70
2023/06/21 11:49:15;;;;;;;9.93;9.03;;;28.00;99.90;;;;;;5096689;28;20445;-70
2023/06/21 11:52:01;;;;;;;13.47;9.87;;;27.90;99.90;;;;;;5096372;28;20841;-70
2023/06/21 11:54:35;;;;;;;12.67;10.33;;;28.10;99.90;;;;;;5096700;28;20720;-70
2023/06/21 11:57:07;;;;;;;10.60;9.50;;;29.20;99.90;;;;;;5096231;28;20422;-70
2023/06/21 11:59:34;;;;;;;8.97;8.03;;;31.10;99.90;;;;;;5096019;28;20427;-72
2023/06/21 12:02:14;;;;;;;8.97;8.20;;;32.80;99.90;;;;;;5095640;28;20442;-71
2023/06/21 12:04:41;;;;;;;10.13;9.10;;;34.00;98.60;;;;;;5096227;28;20782;-71
2023/06/21 12:07:07;;;;;;;11.03;7.70;;;34.20;97.40;;;;;;5096545;28;20779;-71
2023/06/21 12:09:32;;;;;;;9.13;8.33;;;34.00;97.30;;;;;;5096246;28;20781;-71
2023/06/21 12:11:58;;;;;;;9.37;8.53;;;33.70;97.70;;;;;;5096190;28;20423;-71
2023/06/21 12:14:25;;;;;;;8.63;7.93;;;33.70;95.80;;;;;;5096301;28;20260;-71
2023/06/21 12:16:50;;;;;;;7.57;6.97;;;33.20;96.80;;;;;;5095910;28;20659;-72
2023/06/21 12:19:16;;;;;;;11.10;8.70;;;32.40;98.30;;;;;;5097522;28;20438;-72
2023/06/21 12:21:42;;;;;;;9.60;8.70;;;31.40;99.80;;;;;;5097011;28;20185;-72
2023/06/21 12:24:08;;;;;;;9.40;8.57;;;30.10;99.90;;;;;;5096543;28;20240;-72
2023/06/21 12:26:49;;;;;;;10.07;9.07;;;30.20;99.90;;;;;;5096299;28;20230;-71
2023/06/21 12:29:15;;;;;;;10.40;9.30;;;30.30;99.90;;;;;;5096348;28;20620;-72
2023/06/21 12:31:44;;;;;;;10.43;9.53;;;30.10;99.90;;;;;;5094922;28;20443;-71
2023/06/21 12:34:15;;;;;;;10.23;9.23;;;30.00;99.90;;;;;;5097731;28;20169;-72
2023/06/21 12:36:42;;;;;;;10.43;9.47;;;30.30;99.90;;;;;;5096249;28;20410;-72
2023/06/21 12:39:08;;;;;;;9.30;8.50;;;30.00;99.90;;;;;;5097346;28;20504;-72
2023/06/21 12:41:34;;;;;;;10.47;9.50;;;29.80;99.90;;;;;;5095865;28;20450;-72
2023/06/21 12:44:06;;;;;;;9.47;8.53;;;30.10;99.90;;;;;;5095037;28;20316;-72
2023/06/21 12:46:39;;;;;;;10.50;9.03;;;30.20;99.90;;;;;;5092865;28;20437;-72